Time;durP1;ratioP1;P1;durP2;ratioP2;P2;SDS_P1;SDS_P2;PMS_P1;PMS_P2;Temp;Humidity;BMP_temperature;BMP_pressure;BME280_temperature;BME280_humidity;BME280_pressure;Samples;Min_cycle;Max_cycle;Signal;HPM_P1;HPM_P2
2022/08/24 00:01:07;;;;;;;80.35;76.53;;;;;;;20.22;94.11;101692.06;5078714;28;20032;-72
2022/08/24 00:03:34;;;;;;;80.28;76.30;;;;;;;20.20;95.56;101678.03;5074582;28;20031;-72
2022/08/24 00:05:59;;;;;;;80.57;76.15;;;;;;;20.19;95.00;101683.63;5087659;28;20525;-73
2022/08/24 00:08:25;;;;;;;88.63;84.15;;;;;;;20.11;96.69;101681.88;5077723;28;20032;-72
2022/08/24 00:10:51;;;;;;;98.82;94.32;;;;;;;20.13;98.20;101691.38;5073064;28;20423;-72
2022/08/24 00:13:17;;;;;;;100.35;95.55;;;;;;;20.07;97.33;101684.09;5077972;28;20020;-72
2022/08/24 00:15:43;;;;;;;90.22;86.13;;;;;;;20.01;97.15;101678.69;5079756;28;20031;-73
2022/08/24 00:18:09;;;;;;;94.95;90.43;;;;;;;20.05;96.26;101685.31;5077474;28;20028;-72
2022/08/24 00:20:35;;;;;;;97.00;92.03;;;;;;;20.03;98.37;101688.19;5077891;28;20487;-72
2022/08/24 00:23:00;;;;;;;93.18;88.55;;;;;;;20.03;99.69;101687.38;5080673;28;20028;-72
2022/08/24 00:25:26;;;;;;;97.45;92.68;;;;;;;19.96;98.14;101681.13;5084165;28;20024;-72
2022/08/24 00:27:52;;;;;;;91.38;87.07;;;;;;;19.83;96.71;101679.16;5079873;28;20035;-73
2022/08/24 00:30:19;;;;;;;92.13;87.40;;;;;;;19.91;97.68;101690.56;5076117;28;20035;-72
2022/08/24 00:32:46;;;;;;;87.22;83.05;;;;;;;19.89;98.32;101689.94;5082912;28;20490;-72
2022/08/24 00:35:12;;;;;;;86.55;82.45;;;;;;;19.85;97.94;101685.97;5076478;28;20055;-73
2022/08/24 00:37:38;;;;;;;91.18;86.88;;;;;;;19.75;97.72;101668.56;5086501;28;20048;-72
2022/08/24 00:40:10;;;;;;;81.78;77.82;;;;;;;19.84;96.95;101695.03;5074072;28;20044;-72
2022/08/24 00:42:38;;;;;;;78.97;75.07;;;;;;;19.83;98.04;101695.22;5081281;28;20019;-72
2022/08/24 00:45:06;;;;;;;77.15;73.35;;;;;;;19.81;97.64;101695.41;5079517;28;20039;-72
2022/08/24 00:47:41;;;;;;;89.40;84.55;;;;;;;19.83;99.85;101687.19;5077216;28;20060;-73
2022/08/24 00:50:11;;;;;;;83.70;79.65;;;;;;;19.80;100.00;101687.56;5079609;28;20032;-72
2022/08/24 00:52:52;;;;;;;74.63;70.80;;;;;;;19.76;100.00;101688.97;5078046;28;20023;-72
2022/08/24 00:55:25;;;;;;;73.95;70.32;;;;;;;19.71;99.01;101690.38;5079489;28;20641;-72
2022/08/24 00:57:56;;;;;;;76.32;72.55;;;;;;;19.68;99.01;101685.34;5081920;28;20025;-72
2022/08/24 01:00:26;;;;;;;75.43;71.75;;;;;;;19.65;98.78;101693.78;5078557;28;20082;-72
2022/08/24 01:02:57;;;;;;;72.47;68.53;;;;;;;19.65;100.00;101683.06;5083854;28;20024;-71
2022/08/24 01:05:23;;;;;;;77.47;73.55;;;;;;;19.55;100.00;101669.13;5082299;28;20423;-71
2022/08/24 01:07:49;;;;;;;72.38;68.70;;;;;;;19.60;100.00;101676.59;5086466;28;20028;-71
2022/08/24 01:10:18;;;;;;;91.47;86.82;;;;;;;19.66;100.00;101687.41;5078921;28;20527;-71
2022/08/24 01:12:47;;;;;;;99.22;93.85;;;;;;;19.50;100.00;101661.69;5079548;28;20047;-71
2022/08/24 01:15:15;;;;;;;120.28;113.65;;;;;;;19.39;100.00;101666.72;5080180;28;20023;-71
2022/08/24 01:20:25;;;;;;;123.10;116.47;;;;;;;19.36;100.00;101683.13;5075702;28;20408;-71
2022/08/24 01:23:04;;;;;;;122.68;116.47;;;;;;;19.22;100.00;101674.94;5073154;28;20476;-71
2022/08/24 01:25:31;;;;;;;120.10;113.95;;;;;;;19.30;100.00;101690.91;5078162;28;20068;-71
2022/08/24 01:28:02;;;;;;;122.90;116.38;;;;;;;19.24;100.00;101694.31;5080009;28;20031;-71
2022/08/24 01:30:28;;;;;;;;;;;;;;;19.24;100.00;101690.81;5077179;28;20473;-70
2022/08/24 01:32:56;;;;;;;105.00;99.78;;;;;;;19.18;100.00;101692.38;5076419;28;19957;-71
2022/08/24 01:35:21;;;;;;;104.28;98.85;;;;;;;19.15;100.00;101692.75;5076359;28;20082;-71
2022/08/24 01:37:47;;;;;;;106.80;101.32;;;;;;;19.10;100.00;101679.13;5078420;28;20534;-72
2022/08/24 01:40:13;;;;;;;110.63;104.72;;;;;;;19.22;100.00;101691.00;5075236;28;20036;-71
2022/08/24 01:42:38;;;;;;;109.45;103.80;;;;;;;19.08;100.00;101684.66;5078500;28;20024;-71
2022/08/24 01:45:05;;;;;;;107.47;102.43;;;;;;;19.09;100.00;101696.19;5078158;28;20019;-70
2022/08/24 01:47:31;;;;;;;89.00;84.53;;;;;;;18.94;100.00;101687.31;5076303;28;20035;-72
2022/08/24 01:49:56;;;;;;;90.18;85.45;;;;;;;19.08;100.00;101702.56;5078230;28;20012;-72
2022/08/24 01:52:24;;;;;;;86.05;81.72;;;;;;;19.04;100.00;101711.97;5076331;28;20028;-72
2022/08/24 01:54:50;;;;;;;72.18;68.50;;;;;;;18.93;100.00;101707.09;5073303;28;20029;-72
2022/08/24 01:57:16;;;;;;;73.78;70.20;;;;;;;19.02;100.00;101722.84;5079187;28;20098;-72
2022/08/24 01:59:41;;;;;;;69.53;65.88;;;;;;;18.95;100.00;101708.56;5078616;28;20039;-72
2022/08/24 02:02:13;;;;;;;74.88;70.88;;;;;;;19.01;100.00;101715.84;5071578;28;20050;-72
2022/08/24 02:04:39;;;;;;;72.82;68.90;;;;;;;19.02;100.00;101719.34;5079909;28;20050;-72
2022/08/24 02:07:05;;;;;;;77.43;73.00;;;;;;;18.93;100.00;101715.94;5078648;28;20063;-72
2022/08/24 02:09:30;;;;;;;89.80;84.90;;;;;;;18.83;100.00;101710.00;5075314;28;20036;-72
2022/08/24 02:11:55;;;;;;;99.25;94.10;;;;;;;18.71;100.00;101709.63;5078004;28;20024;-70
2022/08/24 02:14:21;;;;;;;109.82;103.88;;;;;;;18.61;100.00;101712.53;5076549;28;20408;-72
2022/08/24 02:16:46;;;;;;;115.78;109.50;;;;;;;18.58;100.00;101710.25;5076884;28;20411;-70
2022/08/24 02:19:12;;;;;;;117.22;110.68;;;;;;;18.51;100.00;101711.97;5079428;28;20043;-71
2022/08/24 02:21:37;;;;;;;125.30;118.95;;;;;;;18.39;100.00;101694.72;5075031;28;20036;-70
2022/08/24 02:24:04;;;;;;;124.70;118.40;;;;;;;18.37;100.00;101702.91;5057870;28;20486;-71
2022/08/24 02:26:29;;;;;;;123.18;117.05;;;;;;;18.37;100.00;101699.41;5072864;28;20066;-71
2022/08/24 02:28:55;;;;;;;118.75;112.50;;;;;;;18.40;100.00;101707.91;5078056;28;20119;-70
2022/08/24 02:31:21;;;;;;;114.32;108.53;;;;;;;18.39;100.00;101718.75;5078689;28;20495;-71
2022/08/24 02:33:46;;;;;;;112.53;106.88;;;;;;;18.32;100.00;101691.94;5076333;28;20028;-71
2022/08/24 02:36:14;;;;;;;103.47;98.45;;;;;;;18.30;100.00;101692.09;5062392;28;20087;-72
2022/08/24 02:38:39;;;;;;;94.00;89.40;;;;;;;18.40;100.00;101710.56;5081627;28;20485;-72
2022/08/24 02:41:05;;;;;;;87.50;83.07;;;;;;;18.38;100.00;101693.88;5070706;28;20031;-71
2022/08/24 02:43:31;;;;;;;91.30;86.85;;;;;;;18.46;100.00;101704.47;5076651;28;20032;-72
2022/08/24 02:45:57;;;;;;;91.05;86.57;;;;;;;18.34;100.00;101684.56;5074668;28;20408;-71
2022/08/24 02:48:23;;;;;;;86.85;82.20;;;;;;;18.58;100.00;101704.06;5073691;28;20019;-71
2022/08/24 02:50:50;;;;;;;97.80;92.63;;;;;;;18.57;100.00;101705.06;5079037;28;20036;-70
2022/08/24 02:53:18;;;;;;;91.45;86.97;;;;;;;18.36;100.00;101687.06;5075804;28;20031;-72
2022/08/24 02:55:44;;;;;;;84.97;80.57;;;;;;;18.52;100.00;101704.78;5079594;28;20024;-71
2022/08/24 02:58:11;;;;;;;86.50;82.22;;;;;;;18.48;100.00;101706.97;5075285;28;20032;-71
2022/08/24 03:00:37;;;;;;;87.65;83.10;;;;;;;18.42;100.00;101692.53;5071324;28;20603;-71
2022/08/24 03:03:05;;;;;;;93.63;88.63;;;;;;;18.46;100.00;101712.50;5072344;28;20037;-70
2022/08/24 03:05:31;;;;;;;91.60;86.90;;;;;;;18.43;100.00;101712.88;5074122;28;20024;-70
2022/08/24 03:07:56;;;;;;;89.40;85.00;;;;;;;18.38;100.00;101709.91;5070715;28;20035;-70
2022/08/24 03:10:22;;;;;;;87.38;82.75;;;;;;;18.37;100.00;101713.59;5077467;28;20028;-72
2022/08/24 03:12:49;;;;;;;85.93;81.53;;;;;;;18.35;100.00;101720.94;5073297;28;20024;-71
2022/08/24 03:15:15;;;;;;;92.25;87.78;;;;;;;18.36;100.00;101717.28;5074033;28;20035;-71
2022/08/24 03:17:41;;;;;;;85.50;81.50;;;;;;;18.33;100.00;101722.97;5077103;28;20036;-71
2022/08/24 03:20:11;;;;;;;92.28;87.95;;;;;;;18.32;100.00;101721.31;5078795;28;20033;-71
2022/08/24 03:22:37;;;;;;;91.97;87.50;;;;;;;18.30;100.00;101723.34;5079841;28;20089;-71
2022/08/24 03:25:04;;;;;;;95.13;90.78;;;;;;;18.28;100.00;101728.03;5079509;28;20023;-71
2022/08/24 03:27:29;;;;;;;96.00;91.78;;;;;;;18.20;100.00;101717.41;5076711;28;20032;-71
2022/08/24 03:29:54;;;;;;;98.22;93.60;;;;;;;18.16;100.00;101713.44;5078145;28;20021;-70
2022/08/24 03:32:20;;;;;;;105.20;100.03;;;;;;;18.06;100.00;101722.53;5079812;28;20032;-71
2022/08/24 03:34:45;;;;;;;97.25;92.60;;;;;;;17.99;100.00;101716.22;5078286;28;20072;-71
2022/08/24 03:37:11;;;;;;;96.45;91.85;;;;;;;18.05;100.00;101731.56;5061273;28;20060;-71
2022/08/24 03:39:37;;;;;;;96.70;92.45;;;;;;;18.01;100.00;101730.25;5079085;28;20028;-71
2022/08/24 03:42:03;;;;;;;85.00;81.15;;;;;;;17.99;100.00;101726.09;5080386;28;20092;-70
2022/08/24 03:44:28;;;;;;;89.75;85.40;;;;;;;17.95;100.00;101712.25;5077519;28;20025;-70
2022/08/24 03:46:54;;;;;;;85.28;81.35;;;;;;;18.01;100.00;101732.91;5076052;28;20030;-70
2022/08/24 03:49:19;;;;;;;98.63;93.85;;;;;;;17.92;100.00;101720.63;5075131;28;20082;-71
2022/08/24 03:51:45;;;;;;;94.38;90.00;;;;;;;17.92;100.00;101725.97;5080683;28;20495;-72
2022/08/24 03:54:11;;;;;;;96.15;91.72;;;;;;;17.88;100.00;101732.66;5079926;28;20029;-70
2022/08/24 03:56:37;;;;;;;97.10;92.50;;;;;;;17.87;100.00;101739.00;5078072;28;20021;-70
2022/08/24 03:59:03;;;;;;;98.82;94.45;;;;;;;17.85;100.00;101733.00;5080637;28;20036;-70
2022/08/24 04:01:29;;;;;;;97.00;92.63;;;;;;;17.86;100.00;101734.69;5075701;28;20040;-70
2022/08/24 04:03:55;;;;;;;94.63;90.05;;;;;;;17.88;100.00;101746.03;5080407;28;20385;-71
2022/08/24 04:06:21;;;;;;;96.75;92.10;;;;;;;17.85;100.00;101741.84;5077032;28;20032;-70
2022/08/24 04:08:47;;;;;;;86.28;82.13;;;;;;;17.76;100.00;101731.38;5077621;28;20503;-70
2022/08/24 04:11:16;;;;;;;89.32;85.15;;;;;;;17.85;100.00;101746.34;5076127;28;20095;-72
2022/08/24 04:13:43;;;;;;;89.38;85.40;;;;;;;17.85;100.00;101738.34;5073167;28;20107;-70
2022/08/24 04:16:11;;;;;;;99.80;94.85;;;;;;;17.83;100.00;101743.03;5076805;28;20056;-70
2022/08/24 04:18:37;;;;;;;88.38;84.03;;;;;;;17.80;100.00;101740.69;5073717;28;20020;-70
2022/08/24 04:21:04;;;;;;;85.85;81.88;;;;;;;17.75;100.00;101741.22;5075400;28;20054;-70
2022/08/24 04:23:31;;;;;;;91.78;87.60;;;;;;;17.75;100.00;101740.41;5083396;28;20365;-71
2022/08/24 04:26:02;;;;;;;79.40;75.63;;;;;;;17.77;100.00;101738.34;5076617;28;20024;-71
2022/08/24 04:28:29;;;;;;;88.38;83.82;;;;;;;17.83;100.00;101741.22;5074572;28;20142;-71
2022/08/24 04:30:55;;;;;;;94.70;89.70;;;;;;;17.82;100.00;101746.72;5073421;28;20442;-71
2022/08/24 04:33:22;;;;;;;92.60;88.10;;;;;;;17.75;100.00;101745.75;5080168;28;20023;-71
2022/08/24 04:35:48;;;;;;;82.30;78.22;;;;;;;17.73;100.00;101748.56;5079310;28;20032;-71
2022/08/24 04:38:16;;;;;;;90.65;86.47;;;;;;;17.75;100.00;101746.56;5079516;28;20124;-71
2022/08/24 04:40:43;;;;;;;83.97;79.70;;;;;;;17.79;100.00;101749.69;5075556;28;20485;-72
2022/08/24 04:43:09;;;;;;;81.18;77.47;;;;;;;17.77;100.00;101743.69;5075974;28;20032;-71
2022/08/24 04:45:42;;;;;;;77.63;73.70;;;;;;;17.79;100.00;101747.03;5077118;28;20023;-71
2022/08/24 04:48:09;;;;;;;87.15;82.53;;;;;;;17.85;100.00;101751.69;5075000;28;20081;-71
2022/08/24 04:50:36;;;;;;;84.18;80.03;;;;;;;17.83;100.00;101759.06;5079470;28;20017;-71
2022/08/24 04:53:03;;;;;;;79.72;75.97;;;;;;;17.82;100.00;101762.75;5077198;28;20024;-71
2022/08/24 04:55:28;;;;;;;84.88;80.88;;;;;;;17.76;100.00;101747.38;5076209;28;20028;-71
2022/08/24 04:57:53;;;;;;;87.78;83.30;;;;;;;17.90;100.00;101757.38;5074135;28;20033;-70
2022/08/24 05:00:19;;;;;;;81.60;77.53;;;;;;;17.97;100.00;101763.66;5058468;28;20040;-71
2022/08/24 05:02:44;;;;;;;79.45;75.55;;;;;;;17.96;100.00;101764.66;5076166;28;20033;-70
2022/08/24 05:05:10;;;;;;;83.60;79.32;;;;;;;18.06;100.00;101767.09;5070207;28;20032;-70
2022/08/24 05:07:36;;;;;;;79.88;76.07;;;;;;;18.02;100.00;101757.78;5079726;28;20032;-70
2022/08/24 05:10:04;;;;;;;83.10;79.00;;;;;;;18.06;100.00;101765.25;5064272;28;20104;-72
2022/08/24 05:12:30;;;;;;;83.97;79.85;;;;;;;18.11;100.00;101764.72;5071707;28;20420;-71
2022/08/24 05:14:56;;;;;;;85.30;81.32;;;;;;;18.19;100.00;101769.19;5078263;28;20051;-72
2022/08/24 05:17:22;;;;;;;81.80;77.43;;;;;;;18.17;100.00;101768.53;5071905;28;20586;-72
2022/08/24 05:19:49;;;;;;;94.40;89.70;;;;;;;18.04;100.00;101767.28;5075720;28;20032;-72
2022/08/24 05:22:14;;;;;;;91.75;87.47;;;;;;;18.01;100.00;101772.16;5071300;28;20028;-72
2022/08/24 05:24:40;;;;;;;97.22;92.82;;;;;;;18.05;100.00;101771.63;5077397;28;20063;-71
2022/08/24 05:27:05;;;;;;;90.13;85.70;;;;;;;18.12;100.00;101773.56;5071750;28;20029;-71
2022/08/24 05:29:33;;;;;;;95.55;90.68;;;;;;;18.15;100.00;101775.91;5072043;28;20078;-72
2022/08/24 05:31:59;;;;;;;92.55;88.18;;;;;;;18.20;100.00;101779.69;5055881;28;20395;-72
2022/08/24 05:34:25;;;;;;;95.82;91.25;;;;;;;18.19;100.00;101763.84;5075093;28;20437;-72
2022/08/24 05:36:51;;;;;;;89.68;85.35;;;;;;;18.35;100.00;101774.41;5073135;28;20189;-72
2022/08/24 05:39:17;;;;;;;84.93;81.10;;;;;;;18.39;100.00;101781.06;5069942;28;20222;-72
2022/08/24 05:41:44;;;;;;;82.53;78.78;;;;;;;18.43;100.00;101776.19;5075140;28;20637;-71
2022/08/24 05:44:11;;;;;;;81.82;78.18;;;;;;;18.56;100.00;101778.28;5073034;28;20456;-71
2022/08/24 05:46:37;;;;;;;88.13;83.88;;;;;;;18.68;100.00;101785.69;5074733;28;20056;-71
2022/08/24 05:49:02;;;;;;;90.03;85.78;;;;;;;18.70;100.00;101790.81;5074583;28;20147;-71
2022/08/24 05:51:28;;;;;;;99.22;94.05;;;;;;;18.69;100.00;101797.19;5076761;28;20020;-72
2022/08/24 05:53:55;;;;;;;109.18;103.88;;;;;;;18.64;100.00;101799.56;5072959;28;20035;-71
2022/08/24 05:56:20;;;;;;;106.43;101.22;;;;;;;18.60;100.00;101803.63;5074628;28;20036;-71
2022/08/24 05:58:46;;;;;;;104.30;99.07;;;;;;;18.66;100.00;101806.41;5074033;28;20069;-71
2022/08/24 06:01:19;;;;;;;106.97;101.75;;;;;;;18.71;100.00;101811.22;5072730;28;20456;-71
2022/08/24 06:03:45;;;;;;;103.65;98.47;;;;;;;18.78;100.00;101806.00;5070494;28;20520;-72
2022/08/24 06:06:12;;;;;;;116.32;110.55;;;;;;;18.83;100.00;101809.78;5074777;28;20045;-72
2022/08/24 06:08:39;;;;;;;118.40;112.53;;;;;;;18.90;100.00;101821.44;5075834;28;20021;-72
2022/08/24 06:11:05;;;;;;;129.55;122.63;;;;;;;18.98;100.00;101822.38;5075112;28;20033;-73
2022/08/24 06:13:32;;;;;;;133.55;126.78;;;;;;;19.03;100.00;101817.28;5076179;28;20038;-72
2022/08/24 06:16:07;;;;;;;137.98;131.30;;;;;;;19.14;100.00;101816.88;5075704;28;20016;-72
2022/08/24 06:18:32;;;;;;;129.57;123.13;;;;;;;19.33;100.00;101829.69;5073785;28;20032;-71
2022/08/24 06:21:03;;;;;;;131.07;124.43;;;;;;;19.50;100.00;101834.88;5074290;28;20779;-72
2022/08/24 06:23:28;;;;;;;120.97;115.00;;;;;;;19.59;100.00;101828.41;5072548;28;20028;-72
2022/08/24 06:28:41;;;;;;;114.68;108.35;;;;;;;20.06;100.00;101832.53;5075904;28;20500;-72
2022/08/24 06:31:06;;;;;;;122.75;116.35;;;;;;;20.23;100.00;101832.28;5073208;28;20277;-73
2022/08/24 06:33:32;;;;;;;126.28;118.90;;;;;;;20.24;100.00;101831.28;5066731;28;20141;-72
2022/08/24 06:35:58;;;;;;;120.80;113.95;;;;;;;20.32;100.00;101841.88;5073319;28;20027;-71
2022/08/24 06:38:23;;;;;;;121.15;114.30;;;;;;;20.39;100.00;101845.44;5072991;28;20059;-72
2022/08/24 06:40:48;;;;;;;124.43;117.32;;;;;;;20.36;100.00;101824.41;5073373;28;20422;-71
2022/08/24 06:43:14;;;;;;;120.03;113.55;;;;;;;20.58;100.00;101829.75;5070607;28;20052;-71
2022/08/24 06:45:40;;;;;;;118.68;112.03;;;;;;;20.69;100.00;101826.59;5072017;28;20477;-71
2022/08/24 06:48:06;;;;;;;118.05;111.45;;;;;;;20.81;100.00;101819.66;5073064;28;20480;-72
2022/08/24 06:50:31;;;;;;;116.53;110.28;;;;;;;21.04;100.00;101829.34;5070674;28;20032;-72
2022/08/24 06:52:59;;;;;;;109.95;104.22;;;;;;;21.25;100.00;101836.47;5076666;28;20035;-72
2022/08/24 06:55:24;;;;;;;109.57;103.40;;;;;;;21.44;100.00;101827.75;5074669;28;20428;-72
2022/08/24 06:57:50;;;;;;;108.63;103.10;;;;;;;21.46;100.00;101827.56;5072607;28;20035;-72
2022/08/24 07:00:16;;;;;;;106.50;100.70;;;;;;;21.84;100.00;101835.16;5072673;28;20028;-72
2022/08/24 07:02:41;;;;;;;114.50;108.22;;;;;;;22.17;99.86;101828.06;5075973;28;20427;-72
2022/08/24 07:05:07;;;;;;;119.82;113.57;;;;;;;22.62;98.21;101837.47;5075625;28;20427;-72
2022/08/24 07:07:32;;;;;;;108.82;103.10;;;;;;;23.26;95.52;101828.75;5080294;28;20387;-72
2022/08/24 07:09:59;;;;;;;84.22;79.82;;;;;;;24.12;91.81;101843.78;5076642;28;20054;-72
2022/08/24 07:12:25;;;;;;;103.38;97.53;;;;;;;24.81;86.06;101849.38;5070264;28;20036;-74
2022/08/24 07:14:51;;;;;;;89.75;85.25;;;;;;;25.64;84.15;101856.25;5076779;28;20024;-72
2022/08/24 07:17:17;;;;;;;84.22;79.72;;;;;;;26.27;77.80;101850.44;5074716;28;20033;-72
2022/08/24 07:19:44;;;;;;;74.32;70.53;;;;;;;27.04;74.93;101855.03;5073668;28;20067;-73
2022/08/24 07:22:10;;;;;;;74.15;70.65;;;;;;;27.70;70.02;101863.03;5078171;28;20032;-72
2022/08/24 07:24:36;;;;;;;56.78;54.17;;;;;;;27.44;67.64;101862.50;5073187;28;20070;-73
2022/08/24 07:27:02;;;;;;;53.75;50.97;;;;;;;27.82;67.79;101865.69;5073855;28;20044;-73
2022/08/24 07:29:27;;;;;;;49.03;46.58;;;;;;;27.48;67.97;101852.81;5080622;28;20493;-71
2022/08/24 07:31:53;;;;;;;47.83;45.30;;;;;;;27.24;69.41;101865.59;5073131;28;20024;-71
2022/08/24 07:34:18;;;;;;;35.45;33.92;;;;;;;27.09;69.38;101862.50;5070657;28;20427;-71
2022/08/24 07:36:43;;;;;;;38.28;36.47;;;;;;;27.11;70.14;101859.53;5068953;28;20174;-71
2022/08/24 07:39:09;;;;;;;36.40;34.60;;;;;;;27.40;71.23;101857.78;5076144;28;20036;-71
2022/08/24 07:41:40;;;;;;;33.30;31.60;;;;;;;27.84;68.25;101861.66;5076949;28;20036;-71
2022/08/24 07:44:08;;;;;;;40.92;38.92;;;;;;;28.65;66.35;101864.25;5077708;28;20056;-71
2022/08/24 07:46:34;;;;;;;54.00;51.65;;;;;;;29.74;64.23;101868.28;5067630;28;20503;-72
2022/08/24 07:48:59;;;;;;;58.35;55.92;;;;;;;31.25;62.01;101877.53;5073429;28;20024;-72
2022/08/24 07:51:26;;;;;;;46.88;44.88;;;;;;;32.33;57.65;101876.03;5075221;28;20033;-72
2022/08/24 07:53:51;;;;;;;45.30;43.20;;;;;;;31.56;56.86;101876.66;5072081;28;20021;-72
2022/08/24 07:56:17;;;;;;;44.28;42.38;;;;;;;31.25;56.67;101878.38;5071624;28;20028;-72
2022/08/24 07:58:43;;;;;;;44.47;42.58;;;;;;;31.70;57.12;101876.97;5070667;28;20408;-72
2022/08/24 08:01:09;;;;;;;49.88;47.85;;;;;;;32.90;56.72;101868.69;5069190;28;20031;-71
2022/08/24 08:03:35;;;;;;;47.85;45.90;;;;;;;34.26;52.44;101881.28;5076168;28;20024;-72
2022/08/24 08:06:05;;;;;;;42.22;40.50;;;;;;;34.94;50.65;101888.66;5092442;28;20037;-72
2022/08/24 08:08:31;;;;;;;49.08;46.88;;;;;;;35.61;50.18;101885.19;5069760;28;20028;-72
2022/08/24 08:10:57;;;;;;;43.17;41.38;;;;;;;35.15;49.02;101892.06;5067221;28;20426;-72
2022/08/24 08:13:23;;;;;;;47.35;45.30;;;;;;;35.59;49.26;101892.91;5072813;28;20025;-72
2022/08/24 08:15:49;;;;;;;49.63;47.42;;;;;;;35.90;49.02;101887.84;5071538;28;20024;-72
2022/08/24 08:18:14;;;;;;;46.95;45.05;;;;;;;36.82;48.51;101886.41;5073272;28;20528;-72
2022/08/24 08:20:41;;;;;;;48.78;46.78;;;;;;;37.56;47.23;101898.47;5069526;28;20055;-72
2022/08/24 08:25:53;;;;;;;43.88;42.08;;;;;;;38.38;45.28;101902.94;5074829;28;20459;-72
2022/08/24 08:28:20;;;;;;;41.50;39.80;;;;;;;38.82;45.38;101904.03;5074045;28;20032;-72
2022/08/24 08:30:45;;;;;;;40.78;38.88;;;;;;;39.23;43.14;101907.66;5072595;28;20033;-72
2022/08/24 08:33:12;;;;;;;42.70;41.00;;;;;;;38.27;43.98;101901.56;5074003;28;20027;-72
2022/08/24 08:35:39;;;;;;;40.15;38.55;;;;;;;38.97;44.92;101905.59;5065390;28;20028;-72
2022/08/24 08:38:06;;;;;;;41.55;39.65;;;;;;;39.11;42.47;101905.50;5073270;28;20048;-72
2022/08/24 08:40:44;;;;;;;43.75;41.85;;;;;;;36.05;46.91;101901.34;5071979;28;20086;-72
2022/08/24 08:43:31;;;;;;;39.10;37.50;;;;;;;35.01;49.83;101888.31;5065704;28;20024;-72
2022/08/24 08:46:12;;;;;;;37.95;36.38;;;;;;;36.31;47.99;101898.25;5075281;28;20024;-72
2022/08/24 08:48:59;;;;;;;36.30;34.80;;;;;;;36.55;47.06;101898.13;5077306;28;20048;-72
2022/08/24 08:51:35;;;;;;;37.63;35.97;;;;;;;36.60;46.41;101900.78;5066888;28;20384;-72
2022/08/24 08:54:21;;;;;;;35.17;33.67;;;;;;;36.07;47.33;101892.00;5065052;28;20546;-72
2022/08/24 08:57:07;;;;;;;35.90;34.47;;;;;;;36.61;48.13;101898.88;5071267;28;20036;-72
2022/08/24 08:59:36;;;;;;;40.63;38.97;;;;;;;36.80;45.42;101891.41;5069994;28;20028;-72
2022/08/24 09:02:07;;;;;;;38.35;36.75;;;;;;;35.43;48.07;101901.34;5072213;28;20036;-72
2022/08/24 09:05:10;;;;;;;42.45;40.65;;;;;;;36.40;46.81;101904.69;5077597;28;20026;-72
2022/08/24 09:07:47;;;;;;;41.25;39.42;;;;;;;36.93;47.62;101897.19;5073487;28;20070;-72
2022/08/24 09:10:38;;;;;;;44.05;42.15;;;;;;;37.12;46.96;101899.91;5074067;28;21569;-72
2022/08/24 09:13:30;;;;;;;42.92;40.88;;;;;;;37.10;45.56;101900.19;5075708;28;20024;-72
2022/08/24 09:16:01;;;;;;;40.17;38.55;;;;;;;37.53;46.88;101896.31;5077057;28;20042;-72
2022/08/24 09:18:41;;;;;;;40.42;38.45;;;;;;;38.89;43.12;101898.91;5071833;28;20442;-72
2022/08/24 09:21:14;;;;;;;41.53;39.75;;;;;;;38.41;43.28;101899.53;5065394;28;20059;-72
2022/08/24 09:23:39;;;;;;;41.15;39.28;;;;;;;37.82;44.44;101895.97;5069339;28;20029;-72
2022/08/24 09:26:26;;;;;;;36.47;34.80;;;;;;;36.44;46.36;101896.66;5076371;28;20038;-72
2022/08/24 09:29:13;;;;;;;36.35;34.63;;;;;;;35.23;49.39;101894.16;5074158;28;20062;-73
2022/08/24 09:32:24;;;;;;;40.63;38.92;;;;;;;37.09;46.45;101898.59;5074671;28;20081;-73
2022/08/24 09:35:13;;;;;;;36.78;35.17;;;;;;;36.98;46.81;101888.88;5067139;28;20044;-73
2022/08/24 09:38:00;;;;;;;39.72;38.03;;;;;;;39.36;42.97;101898.44;5065602;28;20049;-73
2022/08/24 09:40:56;;;;;;;36.92;35.05;;;;;;;37.44;45.58;101896.22;5072823;28;20028;-73
2022/08/24 09:43:52;;;;;;;39.65;37.97;;;;;;;38.57;44.02;101889.00;5075445;28;20384;-73
2022/08/24 09:46:39;;;;;;;35.20;33.67;;;;;;;38.46;43.18;101893.13;5068146;28;20366;-73
2022/08/24 09:49:04;;;;;;;35.58;33.97;;;;;;;37.09;45.89;101893.09;5070408;28;20134;-73
2022/08/24 09:52:08;;;;;;;40.40;38.77;;;;;;;36.96;45.84;101896.59;5068401;28;20028;-73
2022/08/24 09:55:14;;;;;;;36.58;35.08;;;;;;;39.08;43.92;101904.19;5074138;28;20039;-73
2022/08/24 09:57:57;;;;;;;41.03;39.33;;;;;;;38.32;44.11;101889.59;5020176;28;20032;-73
2022/08/24 10:00:46;;;;;;;40.33;38.40;;;;;;;39.84;41.66;101903.13;5033125;28;20213;-73
2022/08/24 10:03:27;;;;;;;37.38;35.83;;;;;;;40.92;39.95;101902.34;5027105;28;20045;-73
2022/08/24 10:06:10;;;;;;;36.15;34.45;;;;;;;39.50;41.97;101903.84;5034719;28;20072;-72
2022/08/24 10:09:00;;;;;;;40.33;38.50;;;;;;;39.27;41.94;101903.94;5036422;28;20482;-73
2022/08/24 10:11:37;;;;;;;40.88;38.78;;;;;;;37.05;44.36;101903.03;5037366;28;20114;-73
2022/08/24 10:14:20;;;;;;;36.40;34.90;;;;;;;37.65;44.59;101891.94;5026309;28;20498;-73
2022/08/24 10:17:05;;;;;;;36.97;35.40;;;;;;;36.87;44.80;101896.50;5012755;28;20029;-73
2022/08/24 10:19:55;;;;;;;39.28;37.38;;;;;;;38.54;43.52;101884.09;5024811;28;20033;-73
2022/08/24 10:22:39;;;;;;;36.85;35.33;;;;;;;37.64;43.89;101890.31;5012363;28;20089;-73
2022/08/24 10:25:07;;;;;;;39.15;37.50;;;;;;;35.98;45.91;101884.44;5032373;28;20035;-73
2022/08/24 10:27:54;;;;;;;37.33;35.53;;;;;;;36.39;45.92;101877.47;5044686;28;20785;-73
2022/08/24 10:30:52;;;;;;;39.85;38.13;;;;;;;36.95;45.77;101871.00;5081647;28;20023;-73
2022/08/24 10:33:20;;;;;;;39.20;37.50;;;;;;;35.71;46.26;101879.56;5068162;28;20062;-73
2022/08/24 10:36:09;;;;;;;36.88;35.33;;;;;;;37.26;46.40;101884.22;5080567;28;20158;-73
2022/08/24 10:42:04;;;;;;;35.95;34.35;;;;;;;42.10;38.92;101879.28;5071678;28;20034;-73
2022/08/24 10:44:33;;;;;;;;;;;;;;;40.92;39.63;101885.72;5073593;28;20119;-73
2022/08/24 10:47:04;;;;;;;38.97;37.05;;;;;;;38.05;43.12;101883.91;5078456;28;21655;-73
2022/08/24 10:49:36;;;;;;;36.72;35.22;;;;;;;39.21;43.86;101879.56;5081052;28;20027;-73
2022/08/24 10:52:22;;;;;;;34.60;33.00;;;;;;;40.75;41.14;101881.06;5077707;28;20091;-73
2022/08/24 10:54:48;;;;;;;37.10;35.60;;;;;;;42.42;39.44;101882.41;5076267;28;20077;-73
2022/08/24 10:57:38;;;;;;;38.35;36.75;;;;;;;42.82;37.82;101879.03;5073079;28;20032;-74
2022/08/24 11:00:15;;;;;;;37.10;35.50;;;;;;;43.82;37.62;101877.78;5072390;28;20021;-74
2022/08/24 11:02:43;;;;;;;34.45;33.05;;;;;;;41.69;38.79;101875.38;5070372;28;20044;-74
2022/08/24 11:05:12;;;;;;;35.90;34.40;;;;;;;40.22;39.51;101868.44;5074520;28;20032;-74
2022/08/24 11:07:56;;;;;;;40.55;38.88;;;;;;;41.48;38.43;101869.78;5085230;28;20031;-74
2022/08/24 11:10:31;;;;;;;36.58;35.15;;;;;;;42.71;36.44;101867.53;5080652;28;20017;-74
2022/08/24 11:13:21;;;;;;;37.75;36.25;;;;;;;41.83;38.17;101866.75;5082015;28;20036;-74
2022/08/24 11:15:56;;;;;;;38.38;36.75;;;;;;;39.22;40.67;101870.97;5075027;28;20086;-74
2022/08/24 11:18:22;;;;;;;37.80;36.28;;;;;;;38.66;41.60;101864.22;5070287;28;20107;-74
2022/08/24 11:20:51;;;;;;;38.70;37.15;;;;;;;38.68;42.60;101867.47;5067711;28;20045;-74
2022/08/24 11:23:27;;;;;;;41.42;39.75;;;;;;;37.44;43.19;101863.19;5075631;28;20043;-73
2022/08/24 11:26:10;;;;;;;37.25;35.83;;;;;;;38.30;43.08;101867.03;5082423;28;20392;-74